Monday, October 16, 2017, 6:11 PM EDT
Back to Local

KDYL, Doylestown Airport

Location: Doylestown, PA, United States Lat: 40.333
Local Time: 6:11 PM EDT (22:11 GMT) Lon: -75.117
Time Zone: US/Eastern Elev: 393 ft

Show me the last for .
Show Decoded

2017-10-16 17:54 METAR KDYL 162154Z AUTO 34011G17KT 10SM CLR 13/01 A3011 RMK AO2 SLP196 T01280011
                 =
2017-10-16 16:54 METAR KDYL 162054Z AUTO 35008G20KT 10SM CLR 14/02 A3009 RMK AO2 SLP188 T01390022
                 53014 =
2017-10-16 15:54 METAR KDYL 161954Z AUTO 32009G18KT 10SM FEW042 14/04 A3007 RMK AO2 SLP181
                 T01390044 =
2017-10-16 14:54 METAR KDYL 161854Z AUTO 34007G16KT 10SM BKN036 13/05 A3006 RMK AO2 SLP179
                 T01330050 =
2017-10-16 13:54 METAR KDYL 161754Z AUTO 35009G18KT 10SM FEW036 13/05 A3005 RMK AO2 SLP174
                 T01330050 10139 20117 56002 =
2017-10-16 12:54 METAR KDYL 161654Z AUTO 33009G17KT 10SM SCT036 12/04 A3005 RMK AO2 SLP176
                 T01220044 =
2017-10-16 11:54 METAR KDYL 161554Z AUTO 34009G16KT 10SM BKN036 12/05 A3004 RMK AO2 SLP171
                 T01220050 =
2017-10-16 10:54 METAR KDYL 161454Z AUTO 32012G18KT 290V360 10SM BKN032 12/05 A3005 RMK AO2
                 SLP176 T01170050 51031 =
2017-10-16 09:54 METAR KDYL 161354Z AUTO 36011G17KT 10SM OVC033 12/07 A3003 RMK AO2 SLP168
                 T01220072 =
2017-10-16 08:54 METAR KDYL 161254Z AUTO 36009G16KT 10SM CLR 13/08 A2999 RMK AO2 SLP153 T01330083
                 $ =
2017-10-16 07:54 METAR KDYL 161154Z AUTO 36008KT 10SM FEW100 FEW120 13/ A2996 RMK AO2 RAB38E48
                 SLP144 P0000 60012 70029 T0133 10172 20133 53024 $ =
2017-10-16 06:54 METAR KDYL 161054Z AUTO 35007KT 10SM FEW039 14/ A2993 RMK AO2 RAE00 SLP133 P0000
                 T0144 $ =
2017-10-16 05:54 METAR KDYL 160954Z AUTO VRB05KT 10SM -RA FEW031 SCT060 BKN110 15/ A2990 RMK AO2
                 RAB38 SLP124 P0000 T0150 $ =
2017-10-16 04:54 METAR KDYL 160854Z AUTO 27003KT 10SM FEW080 OVC110 16/ A2989 RMK AO2 RAE20
                 SLP119 P0000 60012 T0156 53002 $ =
2017-10-16 03:54 METAR KDYL 160754Z AUTO 29004KT 10SM -RA BKN065 OVC080 16/ A2988 RMK AO2 RAB00
                 SLP115 P0010 T0156 $ =
2017-10-16 02:54 METAR KDYL 160654Z AUTO 30008KT 10SM BKN070 OVC085 17/16 A2987 RMK AO2 RAE17
                 SLP112 P0002 T01720156 $ =
2017-10-16 02:06 METAR KDYL 160606Z AUTO 29008KT 10SM -RA SCT010 SCT032 OVC039 17/17 A2988 RMK
                 AO2 P0002 T01720167 $ =
2017-10-16 01:54 METAR KDYL 160554Z AUTO 29006KT 6SM -RA BR BKN010 BKN014 OVC032 17/17 A2988 RMK
                 AO2 RAB15 SLP116 P0015 60017 T01720167 10206 20172 53021 $ =
2017-10-16 01:36 METAR KDYL 160536Z AUTO 33010G15KT 9SM -RA BKN012 OVC029 18/17 A2987 RMK AO2
                 RAB15 P0002 T01780167 $ =
2017-10-16 01:28 METAR KDYL 160528Z AUTO 34008KT 10SM -RA SCT014 BKN029 OVC039 19/18 A2986 RMK
                 AO2 RAB15 P0000 T01890178 $ =
2017-10-16 00:54 METAR KDYL 160454Z AUTO 28005KT 10SM FEW016 OVC040 19/19 A2984 RMK AO2 RAB04E41
                 SLP101 P0002 T01940189 402060167 $ =
2017-10-16 00:43 METAR KDYL 160443Z AUTO VRB06KT 10SM FEW016 SCT026 OVC042 20/19 A2984 RMK AO2
                 RAB04E41 P0002 T02000189 $ =
2017-10-16 00:21 METAR KDYL 160421Z AUTO 25007G15KT 10SM -RA BKN027 BKN041 OVC065 20/19 A2983 RMK
                 AO2 RAB04 P0002 T02000189 $ =
2017-10-15 23:54 METAR KDYL 160354Z AUTO 23006KT 10SM BKN075 OVC090 20/18 A2982 RMK AO2 SLP094
                 T02000183 $ =
2017-10-15 22:54 METAR KDYL 160254Z AUTO 20005KT 10SM BKN075 19/18 A2982 RMK AO2 SLP095 T01890183
                 57010 $ =
2017-10-15 21:54 METAR KDYL 160154Z AUTO 20006KT 10SM FEW013 19/18 A2983 RMK AO2 SLP100 T01890178
                 $ =
2017-10-15 21:41 METAR KDYL 160141Z AUTO VRB05KT 10SM SCT013 19/18 A2983 RMK AO2 T01890178 $ =
2017-10-15 21:25 METAR KDYL 160125Z AUTO 19005KT 10SM BKN014 19/18 A2984 RMK AO2 T01890178 $ =
2017-10-15 21:15 METAR KDYL 160115Z AUTO 19006KT 10SM SCT016 19/18 A2984 RMK AO2 T01890178 $ =
2017-10-15 21:07 METAR KDYL 160107Z AUTO 19004KT 10SM BKN017 19/18 A2984 RMK AO2 T01890178 $ =
2017-10-15 20:54 METAR KDYL 160054Z AUTO 21003KT 10SM SCT017 19/17 A2984 RMK AO2 SLP101 T01890172
                 $ =
2017-10-15 20:22 METAR KDYL 160022Z AUTO 19008KT 10SM SCT018 19/17 A2983 RMK AO2 T01890172 $ =
2017-10-15 19:54 METAR KDYL 152354Z AUTO 19005KT 10SM BKN017 19/17 A2985 RMK AO2 SLP105 T01940172
                 10200 20194 56013 $ =
2017-10-15 18:54 METAR KDYL 152254Z AUTO 18007KT 10SM OVC017 19/17 A2986 RMK AO2 SLP107 T01940167
                 $ =

Support USWX by starting your Amazon purchase here.